sensor_id;sensor_type;location;lat;lon;timestamp;pressure;altitude;pressure_sealevel;temperature;humidity
71361;BME280;59166;48.908;1.870;2023-12-07T00:04:19;100570.97;;;3.90;100.00
71361;BME280;59166;48.908;1.870;2023-12-07T00:09:22;100583.53;;;3.89;100.00
71361;BME280;59166;48.908;1.870;2023-12-07T00:14:22;100562.16;;;3.83;100.00
71361;BME280;59166;48.908;1.870;2023-12-07T00:19:23;100555.81;;;3.77;100.00
71361;BME280;59166;48.908;1.870;2023-12-07T00:24:25;100568.34;;;3.83;100.00
71361;BME280;59166;48.908;1.870;2023-12-07T00:29:26;100573.47;;;3.78;100.00
71361;BME280;59166;48.908;1.870;2023-12-07T00:34:27;100574.28;;;3.85;100.00
71361;BME280;59166;48.908;1.870;2023-12-07T00:39:29;100580.28;;;3.81;100.00
71361;BME280;59166;48.908;1.870;2023-12-07T00:44:30;100573.69;;;3.83;100.00
71361;BME280;59166;48.908;1.870;2023-12-07T00:49:31;100575.94;;;3.80;100.00
71361;BME280;59166;48.908;1.870;2023-12-07T00:54:33;100578.59;;;3.86;100.00
71361;BME280;59166;48.908;1.870;2023-12-07T00:59:34;100581.28;;;3.86;100.00
71361;BME280;59166;48.908;1.870;2023-12-07T01:04:34;100578.59;;;3.86;100.00
71361;BME280;59166;48.908;1.870;2023-12-07T01:09:37;100574.91;;;3.87;100.00
71361;BME280;59166;48.908;1.870;2023-12-07T01:14:37;100571.00;;;3.83;100.00
71361;BME280;59166;48.908;1.870;2023-12-07T01:19:38;100552.06;;;3.85;100.00
71361;BME280;59166;48.908;1.870;2023-12-07T01:24:40;100554.34;;;3.81;100.00
71361;BME280;59166;48.908;1.870;2023-12-07T01:29:41;100544.31;;;3.77;100.00
71361;BME280;59166;48.908;1.870;2023-12-07T01:34:42;100543.06;;;3.73;100.00
71361;BME280;59166;48.908;1.870;2023-12-07T01:39:44;100542.88;;;3.74;100.00
71361;BME280;59166;48.908;1.870;2023-12-07T01:44:45;100544.09;;;3.72;100.00
71361;BME280;59166;48.908;1.870;2023-12-07T01:49:45;100549.66;;;3.70;100.00
71361;BME280;59166;48.908;1.870;2023-12-07T01:54:48;100539.78;;;3.77;100.00
71361;BME280;59166;48.908;1.870;2023-12-07T01:59:49;100531.78;;;3.77;100.00
71361;BME280;59166;48.908;1.870;2023-12-07T02:04:50;100534.03;;;3.74;100.00
71361;BME280;59166;48.908;1.870;2023-12-07T02:09:52;100515.97;;;3.69;100.00
71361;BME280;59166;48.908;1.870;2023-12-07T02:14:53;100510.41;;;3.71;100.00
71361;BME280;59166;48.908;1.870;2023-12-07T02:20:02;100496.25;;;3.63;100.00
71361;BME280;59166;48.908;1.870;2023-12-07T02:25:09;100499.34;;;3.60;100.00
71361;BME280;59166;48.908;1.870;2023-12-07T02:30:12;100503.03;;;3.66;100.00
71361;BME280;59166;48.908;1.870;2023-12-07T02:35:13;100513.31;;;3.62;100.00
71361;BME280;59166;48.908;1.870;2023-12-07T02:40:18;100538.78;;;3.65;100.00
71361;BME280;59166;48.908;1.870;2023-12-07T02:45:21;100545.94;;;3.71;100.00
71361;BME280;59166;48.908;1.870;2023-12-07T02:50:21;100547.81;;;3.77;100.00
71361;BME280;59166;48.908;1.870;2023-12-07T02:55:22;100507.72;;;3.77;100.00
71361;BME280;59166;48.908;1.870;2023-12-07T03:00:24;100474.25;;;3.68;100.00
71361;BME280;59166;48.908;1.870;2023-12-07T03:05:25;100469.28;;;3.72;100.00
71361;BME280;59166;48.908;1.870;2023-12-07T03:10:26;100458.03;;;3.63;100.00
71361;BME280;59166;48.908;1.870;2023-12-07T03:15:28;100453.91;;;3.67;100.00
71361;BME280;59166;48.908;1.870;2023-12-07T03:20:29;100414.28;;;3.64;100.00
71361;BME280;59166;48.908;1.870;2023-12-07T03:25:30;100429.88;;;3.67;100.00
71361;BME280;59166;48.908;1.870;2023-12-07T03:30:32;100449.19;;;3.69;100.00
71361;BME280;59166;48.908;1.870;2023-12-07T03:35:33;100434.16;;;3.68;100.00
71361;BME280;59166;48.908;1.870;2023-12-07T03:40:34;100429.25;;;3.65;100.00
71361;BME280;59166;48.908;1.870;2023-12-07T03:45:36;100439.34;;;3.63;100.00
71361;BME280;59166;48.908;1.870;2023-12-07T03:50:37;100465.63;;;3.66;100.00
71361;BME280;59166;48.908;1.870;2023-12-07T03:55:38;100459.47;;;3.65;100.00
71361;BME280;59166;48.908;1.870;2023-12-07T04:00:41;100455.78;;;3.66;100.00
71361;BME280;59166;48.908;1.870;2023-12-07T04:05:42;100464.63;;;3.60;100.00
71361;BME280;59166;48.908;1.870;2023-12-07T04:10:43;100458.63;;;3.65;100.00
71361;BME280;59166;48.908;1.870;2023-12-07T04:15:45;100449.22;;;3.62;100.00
71361;BME280;59166;48.908;1.870;2023-12-07T04:20:46;100435.66;;;3.57;100.00
71361;BME280;59166;48.908;1.870;2023-12-07T04:25:47;100409.75;;;3.58;100.00
71361;BME280;59166;48.908;1.870;2023-12-07T04:30:49;100393.97;;;3.56;100.00
71361;BME280;59166;48.908;1.870;2023-12-07T04:35:50;100376.69;;;3.59;100.00
71361;BME280;59166;48.908;1.870;2023-12-07T04:40:51;100365.41;;;3.57;100.00
71361;BME280;59166;48.908;1.870;2023-12-07T04:45:53;100363.34;;;3.59;100.00
71361;BME280;59166;48.908;1.870;2023-12-07T04:50:54;100367.22;;;3.63;100.00
71361;BME280;59166;48.908;1.870;2023-12-07T04:55:55;100366.78;;;3.66;100.00
71361;BME280;59166;48.908;1.870;2023-12-07T05:00:57;100361.41;;;3.73;100.00
71361;BME280;59166;48.908;1.870;2023-12-07T05:05:58;100373.34;;;3.70;100.00
71361;BME280;59166;48.908;1.870;2023-12-07T05:10:59;100380.53;;;3.69;100.00
71361;BME280;59166;48.908;1.870;2023-12-07T05:16:01;100406.00;;;3.72;100.00
71361;BME280;59166;48.908;1.870;2023-12-07T05:21:02;100391.78;;;3.78;100.00
71361;BME280;59166;48.908;1.870;2023-12-07T05:26:03;100399.41;;;3.75;100.00
71361;BME280;59166;48.908;1.870;2023-12-07T05:31:06;100407.22;;;3.76;100.00
71361;BME280;59166;48.908;1.870;2023-12-07T05:36:07;100387.69;;;3.76;100.00
71361;BME280;59166;48.908;1.870;2023-12-07T05:41:08;100379.28;;;3.72;100.00
71361;BME280;59166;48.908;1.870;2023-12-07T05:46:11;100366.56;;;3.74;100.00
71361;BME280;59166;48.908;1.870;2023-12-07T05:51:13;100372.94;;;3.73;100.00
71361;BME280;59166;48.908;1.870;2023-12-07T05:56:18;100373.09;;;3.78;100.00
71361;BME280;59166;48.908;1.870;2023-12-07T06:01:20;100356.06;;;3.73;100.00
71361;BME280;59166;48.908;1.870;2023-12-07T06:06:21;100359.56;;;3.73;100.00
71361;BME280;59166;48.908;1.870;2023-12-07T06:11:22;100349.66;;;3.80;100.00
71361;BME280;59166;48.908;1.870;2023-12-07T06:16:24;100342.44;;;3.87;100.00
71361;BME280;59166;48.908;1.870;2023-12-07T06:21:25;100318.16;;;3.89;100.00
71361;BME280;59166;48.908;1.870;2023-12-07T06:26:26;100322.91;;;3.87;100.00
71361;BME280;59166;48.908;1.870;2023-12-07T06:31:28;100313.63;;;3.89;100.00
71361;BME280;59166;48.908;1.870;2023-12-07T06:36:29;100327.41;;;3.86;100.00
71361;BME280;59166;48.908;1.870;2023-12-07T06:41:29;100316.28;;;3.89;100.00
71361;BME280;59166;48.908;1.870;2023-12-07T06:46:32;100298.63;;;3.88;100.00
71361;BME280;59166;48.908;1.870;2023-12-07T06:51:32;100273.59;;;3.83;100.00
71361;BME280;59166;48.908;1.870;2023-12-07T06:56:33;100268.75;;;3.73;100.00
71361;BME280;59166;48.908;1.870;2023-12-07T07:01:35;100262.97;;;3.76;100.00
71361;BME280;59166;48.908;1.870;2023-12-07T07:06:36;100278.13;;;3.82;100.00
71361;BME280;59166;48.908;1.870;2023-12-07T07:11:37;100277.53;;;3.80;100.00
71361;BME280;59166;48.908;1.870;2023-12-07T07:16:39;100286.75;;;3.84;100.00
71361;BME280;59166;48.908;1.870;2023-12-07T07:21:40;100294.53;;;3.86;100.00
71361;BME280;59166;48.908;1.870;2023-12-07T07:26:41;100300.25;;;3.89;100.00
71361;BME280;59166;48.908;1.870;2023-12-07T07:31:43;100300.50;;;3.88;100.00
71361;BME280;59166;48.908;1.870;2023-12-07T07:36:44;100302.28;;;3.94;100.00
71361;BME280;59166;48.908;1.870;2023-12-07T07:41:45;100291.81;;;3.92;100.00
71361;BME280;59166;48.908;1.870;2023-12-07T07:46:47;100290.34;;;3.96;100.00
71361;BME280;59166;48.908;1.870;2023-12-07T07:51:48;100285.44;;;3.93;100.00
71361;BME280;59166;48.908;1.870;2023-12-07T07:56:48;100278.63;;;3.97;100.00
71361;BME280;59166;48.908;1.870;2023-12-07T08:01:51;100277.41;;;3.93;100.00
71361;BME280;59166;48.908;1.870;2023-12-07T08:06:52;100259.47;;;4.00;100.00
71361;BME280;59166;48.908;1.870;2023-12-07T08:11:52;100263.94;;;4.06;100.00
71361;BME280;59166;48.908;1.870;2023-12-07T08:16:55;100246.44;;;4.10;100.00
71361;BME280;59166;48.908;1.870;2023-12-07T08:21:56;100244.66;;;4.04;100.00
71361;BME280;59166;48.908;1.870;2023-12-07T08:26:56;100244.22;;;4.07;100.00
71361;BME280;59166;48.908;1.870;2023-12-07T08:31:59;100257.50;;;4.14;100.00
71361;BME280;59166;48.908;1.870;2023-12-07T08:36:59;100262.19;;;4.18;100.00
71361;BME280;59166;48.908;1.870;2023-12-07T08:42:00;100256.41;;;4.22;100.00
71361;BME280;59166;48.908;1.870;2023-12-07T08:47:03;100232.38;;;4.22;100.00
71361;BME280;59166;48.908;1.870;2023-12-07T08:52:04;100235.19;;;4.27;100.00
71361;BME280;59166;48.908;1.870;2023-12-07T08:57:04;100223.00;;;4.31;100.00
71361;BME280;59166;48.908;1.870;2023-12-07T09:02:07;100192.13;;;4.35;100.00
71361;BME280;59166;48.908;1.870;2023-12-07T09:07:07;100193.00;;;4.47;100.00
71361;BME280;59166;48.908;1.870;2023-12-07T09:12:08;100178.13;;;4.51;100.00
71361;BME280;59166;48.908;1.870;2023-12-07T09:17:10;100178.28;;;4.56;100.00
71361;BME280;59166;48.908;1.870;2023-12-07T09:22:11;100167.00;;;4.54;100.00
71361;BME280;59166;48.908;1.870;2023-12-07T09:27:13;100179.00;;;4.63;100.00
71361;BME280;59166;48.908;1.870;2023-12-07T09:32:15;100179.75;;;4.70;100.00
71361;BME280;59166;48.908;1.870;2023-12-07T09:37:16;100168.00;;;4.71;100.00
71361;BME280;59166;48.908;1.870;2023-12-07T09:42:17;100153.59;;;4.72;100.00
71361;BME280;59166;48.908;1.870;2023-12-07T09:47:19;100142.94;;;4.84;100.00
71361;BME280;59166;48.908;1.870;2023-12-07T09:52:21;100110.47;;;4.80;100.00
71361;BME280;59166;48.908;1.870;2023-12-07T09:57:22;100105.72;;;4.82;100.00
71361;BME280;59166;48.908;1.870;2023-12-07T10:02:25;100101.66;;;4.91;100.00
71361;BME280;59166;48.908;1.870;2023-12-07T10:07:32;100090.94;;;4.91;100.00
71361;BME280;59166;48.908;1.870;2023-12-07T10:12:34;100090.84;;;4.98;100.00
71361;BME280;59166;48.908;1.870;2023-12-07T10:17:47;100078.41;;;5.03;100.00
71361;BME280;59166;48.908;1.870;2023-12-07T10:22:48;100075.16;;;5.13;100.00
71361;BME280;59166;48.908;1.870;2023-12-07T10:27:49;100069.47;;;5.21;100.00
71361;BME280;59166;48.908;1.870;2023-12-07T10:32:51;100062.72;;;5.18;100.00
71361;BME280;59166;48.908;1.870;2023-12-07T10:37:52;100060.50;;;5.27;100.00
71361;BME280;59166;48.908;1.870;2023-12-07T10:42:57;100058.66;;;5.28;100.00
71361;BME280;59166;48.908;1.870;2023-12-07T10:48:03;100042.72;;;5.33;100.00
71361;BME280;59166;48.908;1.870;2023-12-07T10:53:10;100015.81;;;5.39;100.00
71361;BME280;59166;48.908;1.870;2023-12-07T10:58:13;100006.97;;;5.39;100.00
71361;BME280;59166;48.908;1.870;2023-12-07T11:03:17;99997.28;;;5.49;100.00
71361;BME280;59166;48.908;1.870;2023-12-07T11:08:23;99994.25;;;5.46;100.00
71361;BME280;59166;48.908;1.870;2023-12-07T11:13:29;99967.09;;;5.54;100.00
71361;BME280;59166;48.908;1.870;2023-12-07T11:18:32;99964.75;;;5.57;100.00
71361;BME280;59166;48.908;1.870;2023-12-07T11:23:33;99968.25;;;5.58;100.00
71361;BME280;59166;48.908;1.870;2023-12-07T11:28:35;99953.00;;;5.58;100.00
71361;BME280;59166;48.908;1.870;2023-12-07T11:33:39;99953.34;;;5.62;100.00
71361;BME280;59166;48.908;1.870;2023-12-07T11:39:17;99923.97;;;5.67;100.00
71361;BME280;59166;48.908;1.870;2023-12-07T11:44:18;99899.53;;;5.63;100.00
71361;BME280;59166;48.908;1.870;2023-12-07T11:49:21;99888.09;;;5.68;100.00
71361;BME280;59166;48.908;1.870;2023-12-07T11:54:22;99877.28;;;5.63;100.00
71361;BME280;59166;48.908;1.870;2023-12-07T11:59:23;99868.44;;;5.62;100.00
71361;BME280;59166;48.908;1.870;2023-12-07T12:04:27;99857.13;;;5.60;100.00
71361;BME280;59166;48.908;1.870;2023-12-07T12:09:28;99860.28;;;5.57;100.00
71361;BME280;59166;48.908;1.870;2023-12-07T12:14:29;99849.19;;;5.65;100.00
71361;BME280;59166;48.908;1.870;2023-12-07T12:19:32;99843.34;;;5.68;100.00
71361;BME280;59166;48.908;1.870;2023-12-07T12:24:33;99809.91;;;5.71;100.00
71361;BME280;59166;48.908;1.870;2023-12-07T12:29:35;99805.53;;;5.82;100.00
71361;BME280;59166;48.908;1.870;2023-12-07T12:34:38;99783.38;;;5.86;100.00
71361;BME280;59166;48.908;1.870;2023-12-07T12:39:39;99770.69;;;5.98;100.00
71361;BME280;59166;48.908;1.870;2023-12-07T12:44:40;99779.00;;;6.13;100.00
71361;BME280;59166;48.908;1.870;2023-12-07T12:49:44;99758.59;;;6.12;100.00
71361;BME280;59166;48.908;1.870;2023-12-07T12:54:45;99749.25;;;6.15;100.00
71361;BME280;59166;48.908;1.870;2023-12-07T12:59:46;99733.09;;;6.10;100.00
71361;BME280;59166;48.908;1.870;2023-12-07T13:04:49;99731.78;;;6.12;100.00
71361;BME280;59166;48.908;1.870;2023-12-07T13:09:50;99725.94;;;6.15;100.00
71361;BME280;59166;48.908;1.870;2023-12-07T13:14:51;99725.38;;;6.13;100.00
71361;BME280;59166;48.908;1.870;2023-12-07T13:19:53;99724.44;;;6.24;100.00
71361;BME280;59166;48.908;1.870;2023-12-07T13:24:54;99708.84;;;6.21;100.00
71361;BME280;59166;48.908;1.870;2023-12-07T13:29:55;99693.25;;;6.18;100.00
71361;BME280;59166;48.908;1.870;2023-12-07T13:34:57;99679.13;;;6.23;100.00
71361;BME280;59166;48.908;1.870;2023-12-07T13:39:58;99667.03;;;6.20;100.00
71361;BME280;59166;48.908;1.870;2023-12-07T13:44:59;99651.44;;;6.17;100.00
71361;BME280;59166;48.908;1.870;2023-12-07T13:50:01;99649.66;;;6.06;100.00
71361;BME280;59166;48.908;1.870;2023-12-07T13:55:03;99634.94;;;6.09;100.00
71361;BME280;59166;48.908;1.870;2023-12-07T14:00:05;99627.38;;;6.06;100.00
71361;BME280;59166;48.908;1.870;2023-12-07T14:05:08;99617.97;;;6.03;100.00
71361;BME280;59166;48.908;1.870;2023-12-07T14:10:09;99617.81;;;6.10;100.00
71361;BME280;59166;48.908;1.870;2023-12-07T14:15:10;99610.16;;;6.02;100.00
71361;BME280;59166;48.908;1.870;2023-12-07T14:20:12;99601.91;;;6.03;100.00
71361;BME280;59166;48.908;1.870;2023-12-07T14:25:13;99615.47;;;5.97;100.00
71361;BME280;59166;48.908;1.870;2023-12-07T14:30:14;99591.34;;;5.97;100.00
71361;BME280;59166;48.908;1.870;2023-12-07T14:35:16;99587.59;;;5.98;100.00
71361;BME280;59166;48.908;1.870;2023-12-07T14:40:18;99597.44;;;5.92;100.00
71361;BME280;59166;48.908;1.870;2023-12-07T14:45:19;99597.03;;;6.00;100.00
71361;BME280;59166;48.908;1.870;2023-12-07T14:50:22;99586.72;;;5.92;100.00
71361;BME280;59166;48.908;1.870;2023-12-07T14:55:22;99597.38;;;5.87;100.00
71361;BME280;59166;48.908;1.870;2023-12-07T15:00:23;99577.22;;;5.85;100.00
71361;BME280;59166;48.908;1.870;2023-12-07T15:05:25;99603.22;;;5.84;100.00
71361;BME280;59166;48.908;1.870;2023-12-07T15:10:26;99605.72;;;5.91;100.00
71361;BME280;59166;48.908;1.870;2023-12-07T15:15:27;99607.78;;;5.84;100.00
71361;BME280;59166;48.908;1.870;2023-12-07T15:20:29;99586.34;;;5.84;100.00
71361;BME280;59166;48.908;1.870;2023-12-07T15:25:30;99547.38;;;5.76;100.00
71361;BME280;59166;48.908;1.870;2023-12-07T15:30:31;99565.09;;;5.77;100.00
71361;BME280;59166;48.908;1.870;2023-12-07T15:35:33;99532.28;;;5.70;100.00
71361;BME280;59166;48.908;1.870;2023-12-07T15:40:34;99530.34;;;5.65;100.00
71361;BME280;59166;48.908;1.870;2023-12-07T15:45:34;99510.78;;;5.65;100.00
71361;BME280;59166;48.908;1.870;2023-12-07T15:50:37;99474.81;;;5.61;100.00
71361;BME280;59166;48.908;1.870;2023-12-07T15:55:37;99505.03;;;5.56;100.00
71361;BME280;59166;48.908;1.870;2023-12-07T16:00:38;99489.75;;;5.57;100.00
71361;BME280;59166;48.908;1.870;2023-12-07T16:05:41;99473.63;;;5.52;100.00
71361;BME280;59166;48.908;1.870;2023-12-07T16:10:41;99473.88;;;5.50;100.00
71361;BME280;59166;48.908;1.870;2023-12-07T16:15:42;99494.75;;;5.48;100.00
71361;BME280;59166;48.908;1.870;2023-12-07T16:20:44;99488.03;;;5.46;100.00
71361;BME280;59166;48.908;1.870;2023-12-07T16:25:45;99477.31;;;5.46;100.00
71361;BME280;59166;48.908;1.870;2023-12-07T16:30:46;99470.28;;;5.40;100.00
71361;BME280;59166;48.908;1.870;2023-12-07T16:35:48;99447.53;;;5.42;100.00
71361;BME280;59166;48.908;1.870;2023-12-07T16:40:49;99438.69;;;5.42;100.00
71361;BME280;59166;48.908;1.870;2023-12-07T16:45:50;99432.47;;;5.36;100.00
71361;BME280;59166;48.908;1.870;2023-12-07T16:50:52;99425.53;;;5.40;100.00
71361;BME280;59166;48.908;1.870;2023-12-07T16:55:53;99429.59;;;5.43;100.00
71361;BME280;59166;48.908;1.870;2023-12-07T17:00:54;99410.78;;;5.38;100.00
71361;BME280;59166;48.908;1.870;2023-12-07T17:05:57;99401.19;;;5.42;100.00
71361;BME280;59166;48.908;1.870;2023-12-07T17:10:58;99397.97;;;5.40;100.00
71361;BME280;59166;48.908;1.870;2023-12-07T17:15:59;99400.56;;;5.35;100.00
71361;BME280;59166;48.908;1.870;2023-12-07T17:21:02;99396.00;;;5.35;100.00
71361;BME280;59166;48.908;1.870;2023-12-07T17:26:03;99401.38;;;5.35;100.00
71361;BME280;59166;48.908;1.870;2023-12-07T17:31:04;99397.34;;;5.33;100.00
71361;BME280;59166;48.908;1.870;2023-12-07T17:36:07;99403.22;;;5.35;100.00
71361;BME280;59166;48.908;1.870;2023-12-07T17:41:08;99396.50;;;5.32;100.00
71361;BME280;59166;48.908;1.870;2023-12-07T17:46:09;99397.00;;;5.29;100.00
71361;BME280;59166;48.908;1.870;2023-12-07T17:51:11;99415.25;;;5.32;100.00
71361;BME280;59166;48.908;1.870;2023-12-07T17:56:12;99402.69;;;5.33;100.00
71361;BME280;59166;48.908;1.870;2023-12-07T18:01:18;99388.72;;;5.31;100.00
71361;BME280;59166;48.908;1.870;2023-12-07T18:06:20;99390.34;;;5.32;100.00
71361;BME280;59166;48.908;1.870;2023-12-07T18:11:22;99372.97;;;5.34;100.00
71361;BME280;59166;48.908;1.870;2023-12-07T18:16:23;99363.03;;;5.30;100.00
71361;BME280;59166;48.908;1.870;2023-12-07T18:21:25;99359.25;;;5.31;100.00
71361;BME280;59166;48.908;1.870;2023-12-07T18:26:26;99343.28;;;5.36;100.00
71361;BME280;59166;48.908;1.870;2023-12-07T18:31:27;99328.25;;;5.35;100.00
71361;BME280;59166;48.908;1.870;2023-12-07T18:36:29;99317.78;;;5.33;100.00
71361;BME280;59166;48.908;1.870;2023-12-07T18:41:30;99302.53;;;5.34;100.00
71361;BME280;59166;48.908;1.870;2023-12-07T18:46:31;99286.97;;;5.31;100.00
71361;BME280;59166;48.908;1.870;2023-12-07T18:51:33;99285.31;;;5.24;100.00
71361;BME280;59166;48.908;1.870;2023-12-07T18:56:34;99261.44;;;5.23;100.00
71361;BME280;59166;48.908;1.870;2023-12-07T19:01:34;99252.13;;;5.26;100.00
71361;BME280;59166;48.908;1.870;2023-12-07T19:06:37;99250.19;;;5.21;100.00
71361;BME280;59166;48.908;1.870;2023-12-07T19:11:37;99252.31;;;5.19;100.00
71361;BME280;59166;48.908;1.870;2023-12-07T19:16:38;99247.50;;;5.21;100.00
71361;BME280;59166;48.908;1.870;2023-12-07T19:21:40;99238.34;;;5.17;100.00
71361;BME280;59166;48.908;1.870;2023-12-07T19:26:41;99237.34;;;5.23;100.00
71361;BME280;59166;48.908;1.870;2023-12-07T19:31:42;99239.75;;;5.19;100.00
71361;BME280;59166;48.908;1.870;2023-12-07T19:36:44;99233.31;;;5.20;100.00
71361;BME280;59166;48.908;1.870;2023-12-07T19:41:45;99231.75;;;5.24;100.00
71361;BME280;59166;48.908;1.870;2023-12-07T19:46:46;99228.56;;;5.28;100.00
71361;BME280;59166;48.908;1.870;2023-12-07T19:51:48;99227.53;;;5.29;100.00
71361;BME280;59166;48.908;1.870;2023-12-07T19:56:49;99214.63;;;5.26;100.00
71361;BME280;59166;48.908;1.870;2023-12-07T20:01:50;99231.25;;;5.28;100.00
71361;BME280;59166;48.908;1.870;2023-12-07T20:06:52;99240.63;;;5.30;100.00
71361;BME280;59166;48.908;1.870;2023-12-07T20:11:53;99224.88;;;5.34;100.00
71361;BME280;59166;48.908;1.870;2023-12-07T20:16:54;99219.31;;;5.40;100.00
71361;BME280;59166;48.908;1.870;2023-12-07T20:21:56;99212.41;;;5.44;100.00
71361;BME280;59166;48.908;1.870;2023-12-07T20:26:57;99209.19;;;5.42;100.00
71361;BME280;59166;48.908;1.870;2023-12-07T20:31:58;99209.78;;;5.49;100.00
71361;BME280;59166;48.908;1.870;2023-12-07T20:37:00;99213.81;;;5.52;100.00
71361;BME280;59166;48.908;1.870;2023-12-07T20:42:01;99207.44;;;5.58;100.00
71361;BME280;59166;48.908;1.870;2023-12-07T20:47:02;99202.06;;;5.58;100.00
71361;BME280;59166;48.908;1.870;2023-12-07T20:52:05;99216.34;;;5.63;100.00
71361;BME280;59166;48.908;1.870;2023-12-07T20:57:06;99220.38;;;5.66;100.00
71361;BME280;59166;48.908;1.870;2023-12-07T21:02:07;99221.97;;;5.67;100.00
71361;BME280;59166;48.908;1.870;2023-12-07T21:07:09;99214.53;;;5.74;100.00
71361;BME280;59166;48.908;1.870;2023-12-07T21:12:10;99216.47;;;5.79;100.00
71361;BME280;59166;48.908;1.870;2023-12-07T21:17:10;99207.59;;;5.78;100.00
71361;BME280;59166;48.908;1.870;2023-12-07T21:22:13;99188.63;;;5.85;100.00
71361;BME280;59166;48.908;1.870;2023-12-07T21:27:16;99180.06;;;5.88;100.00
71361;BME280;59166;48.908;1.870;2023-12-07T21:32:17;99172.91;;;5.93;100.00
71361;BME280;59166;48.908;1.870;2023-12-07T21:37:19;99178.47;;;5.87;100.00
71361;BME280;59166;48.908;1.870;2023-12-07T21:42:20;99182.25;;;5.91;100.00
71361;BME280;59166;48.908;1.870;2023-12-07T21:47:21;99186.81;;;5.90;100.00
71361;BME280;59166;48.908;1.870;2023-12-07T21:52:24;99172.38;;;5.96;100.00
71361;BME280;59166;48.908;1.870;2023-12-07T21:57:24;99148.78;;;5.93;100.00
71361;BME280;59166;48.908;1.870;2023-12-07T22:02:25;99121.41;;;5.91;100.00
71361;BME280;59166;48.908;1.870;2023-12-07T22:07:27;99072.34;;;5.91;100.00
71361;BME280;59166;48.908;1.870;2023-12-07T22:12:28;99079.56;;;5.85;100.00
71361;BME280;59166;48.908;1.870;2023-12-07T22:17:29;99163.22;;;5.87;100.00
71361;BME280;59166;48.908;1.870;2023-12-07T22:22:31;99156.53;;;5.90;100.00
71361;BME280;59166;48.908;1.870;2023-12-07T22:27:32;99133.28;;;6.00;100.00
71361;BME280;59166;48.908;1.870;2023-12-07T22:32:33;99176.69;;;5.97;100.00
71361;BME280;59166;48.908;1.870;2023-12-07T22:37:35;99199.47;;;6.00;100.00
71361;BME280;59166;48.908;1.870;2023-12-07T22:42:36;99189.59;;;6.05;100.00
71361;BME280;59166;48.908;1.870;2023-12-07T22:47:37;99205.66;;;6.05;100.00
71361;BME280;59166;48.908;1.870;2023-12-07T22:52:39;99194.44;;;6.08;100.00
71361;BME280;59166;48.908;1.870;2023-12-07T22:57:40;99217.53;;;6.14;100.00
71361;BME280;59166;48.908;1.870;2023-12-07T23:02:40;99250.28;;;6.21;100.00
71361;BME280;59166;48.908;1.870;2023-12-07T23:07:43;99235.81;;;6.22;100.00
71361;BME280;59166;48.908;1.870;2023-12-07T23:12:43;99212.50;;;6.23;100.00
71361;BME280;59166;48.908;1.870;2023-12-07T23:17:44;99194.25;;;6.25;100.00
71361;BME280;59166;48.908;1.870;2023-12-07T23:22:46;99181.97;;;6.29;100.00
71361;BME280;59166;48.908;1.870;2023-12-07T23:27:47;99225.69;;;6.30;100.00
71361;BME280;59166;48.908;1.870;2023-12-07T23:32:48;99201.56;;;6.35;100.00
71361;BME280;59166;48.908;1.870;2023-12-07T23:37:50;99220.91;;;6.37;100.00
71361;BME280;59166;48.908;1.870;2023-12-07T23:42:51;99231.91;;;6.40;100.00
71361;BME280;59166;48.908;1.870;2023-12-07T23:47:52;99220.91;;;6.42;100.00
71361;BME280;59166;48.908;1.870;2023-12-07T23:52:54;99234.91;;;6.44;100.00
71361;BME280;59166;48.908;1.870;2023-12-07T23:57:55;99250.50;;;6.47;100.00
